Time;durP1;ratioP1;P1;durP2;ratioP2;P2;SDS_P1;SDS_P2;PMS_P1;PMS_P2;Temp;Humidity;BMP_temperature;BMP_pressure;BME280_temperature;BME280_humidity;BME280_pressure;Samples;Min_cycle;Max_cycle;Signal;HPM_P1;HPM_P2
2022/12/20 00:01:43;;;;;;;15.52;2.28;;;;;;;;;;5093435;28;20032;-70
2022/12/20 00:04:10;;;;;;;10.98;2.28;;;;;;;;;;5111706;28;20059;-70
2022/12/20 00:06:35;;;;;;;10.43;2.30;;;;;;;;;;5111683;28;20027;-70
2022/12/20 00:09:04;;;;;;;11.75;2.33;;;;;;;;;;5093408;28;20380;-70
2022/12/20 00:11:29;;;;;;;8.85;2.10;;;;;;;;;;5111694;28;20038;-69
2022/12/20 00:13:55;;;;;;;13.90;2.75;;;;;;;;;;5093208;28;20036;-69
2022/12/20 00:16:24;;;;;;;8.98;2.25;;;;;;;;;;5111709;28;20509;-69
2022/12/20 00:18:54;;;;;;;7.28;2.30;;;;;;;;;;5111417;28;20069;-69
2022/12/20 00:21:20;;;;;;;8.93;2.47;;;;;;;;;;5111592;28;20047;-69
2022/12/20 00:23:46;;;;;;;7.88;1.90;;;;;;;;;;5111244;28;20027;-69
2022/12/20 00:26:14;;;;;;;11.05;2.05;;;;;;;;;;5111425;28;20036;-69
2022/12/20 00:28:41;;;;;;;13.00;2.10;;;;;;;;;;5111107;28;20027;-69
2022/12/20 00:31:08;;;;;;;9.88;2.22;;;;;;;;;;5093317;28;20415;-69
2022/12/20 00:33:35;;;;;;;10.18;2.00;;;;;;;;;;5111463;28;20019;-71
2022/12/20 00:36:01;;;;;;;11.82;2.33;;;;;;;;;;5111090;28;20028;-70
2022/12/20 00:38:27;;;;;;;11.82;2.03;;;;;;;;;;5111412;28;20228;-69
2022/12/20 00:41:07;;;;;;;12.52;2.33;;;;;;;;;;5111331;28;20051;-69
2022/12/20 00:43:33;;;;;;;;;;;;;;;;;;5111661;28;20031;-70
2022/12/20 00:45:59;;;;;;;10.65;2.30;;;;;;;;;;5111067;28;19919;-72
2022/12/20 00:48:25;;;;;;;11.80;2.40;;;;;;;;;;5111168;28;20521;-70
2022/12/20 00:50:51;;;;;;;9.32;2.10;;;;;;;;;;5111058;28;20024;-70
2022/12/20 00:53:17;;;;;;;11.95;2.38;;;;;;;;;;5111314;28;20568;-70
2022/12/20 00:55:44;;;;;;;15.40;2.10;;;;;;;;;;5110633;28;20024;-71
2022/12/20 00:58:10;;;;;;;13.07;2.08;;;;;;;;;;5110872;28;20042;-71
2022/12/20 01:00:36;;;;;;;11.75;2.10;;;;;;;;;;5110682;28;20041;-70
2022/12/20 01:03:02;;;;;;;13.95;2.03;;;;;;;;;;5093099;28;20536;-72
2022/12/20 01:05:27;;;;;;;11.25;2.45;;;;;;;;;;5092450;28;20564;-69
2022/12/20 01:07:53;;;;;;;10.30;2.10;;;;;;;;;;5110952;28;20020;-69
2022/12/20 01:10:18;;;;;;;12.85;2.00;;;;;;;;;;5110858;28;20020;-69
2022/12/20 01:12:44;;;;;;;8.35;1.83;;;;;;;;;;5110871;28;20420;-69
2022/12/20 01:15:10;;;;;;;8.52;2.17;;;;;;;;;;5110490;28;20034;-69
2022/12/20 01:17:36;;;;;;;11.43;2.30;;;;;;;;;;5110850;28;20020;-70
2022/12/20 01:20:01;;;;;;;9.07;2.20;;;;;;;;;;5110683;28;20023;-69
2022/12/20 01:22:27;;;;;;;9.70;2.08;;;;;;;;;;5111035;28;20072;-69
2022/12/20 01:24:52;;;;;;;8.65;1.98;;;;;;;;;;5114829;28;20034;-70
2022/12/20 01:27:18;;;;;;;13.70;2.03;;;;;;;;;;5114992;28;20402;-69
2022/12/20 01:29:43;;;;;;;7.00;1.70;;;;;;;;;;5114644;28;20032;-69
2022/12/20 01:32:09;;;;;;;11.38;2.45;;;;;;;;;;5114771;28;20550;-69
2022/12/20 01:34:34;;;;;;;12.20;2.10;;;;;;;;;;5114482;28;20031;-69
2022/12/20 01:36:59;;;;;;;10.50;2.10;;;;;;;;;;5114875;28;20089;-69
2022/12/20 01:39:25;;;;;;;8.52;2.00;;;;;;;;;;5114687;28;20027;-70
2022/12/20 01:41:50;;;;;;;7.65;2.03;;;;;;;;;;5096658;28;20016;-69
2022/12/20 01:44:15;;;;;;;9.82;1.85;;;;;;;;;;5114752;28;20028;-69
2022/12/20 01:46:42;;;;;;;13.60;1.95;;;;;;;;;;5114078;28;20043;-69
2022/12/20 01:49:18;;;;;;;10.63;2.03;;;;;;;;;;5095907;28;20110;-69
2022/12/20 01:51:48;;;;;;;11.40;2.25;;;;;;;;;;5114405;28;20034;-71
2022/12/20 01:54:18;;;;;;;10.40;1.83;;;;;;;;;;5114526;28;20031;-70
2022/12/20 01:56:50;;;;;;;8.23;2.05;;;;;;;;;;5114118;28;20034;-70
2022/12/20 01:59:16;;;;;;;10.57;2.08;;;;;;;;;;5114398;28;20028;-70
2022/12/20 02:01:42;;;;;;;12.00;2.10;;;;;;;;;;5114301;28;20023;-71
2022/12/20 02:04:08;;;;;;;10.20;2.22;;;;;;;;;;5114428;28;20042;-70
2022/12/20 02:06:34;;;;;;;9.73;2.00;;;;;;;;;;5114008;28;20157;-72
2022/12/20 02:09:01;;;;;;;9.07;2.08;;;;;;;;;;5114104;28;20512;-70
2022/12/20 02:11:42;;;;;;;8.27;1.63;;;;;;;;;;5114012;28;20058;-71
2022/12/20 02:14:30;;;;;;;10.85;2.22;;;;;;;;;;5114153;28;20027;-70
2022/12/20 02:17:40;;;;;;;6.75;1.80;;;;;;;;;;5113847;28;20028;-70
2022/12/20 02:20:30;;;;;;;7.97;1.97;;;;;;;;;;5087839;28;20089;-70
2022/12/20 02:23:10;;;;;;;13.32;2.55;;;;;;;;;;5095626;28;20100;-70
2022/12/20 02:25:50;;;;;;;8.48;2.30;;;;;;;;;;5113549;28;20024;-72
2022/12/20 02:28:44;;;;;;;9.38;2.22;;;;;;;;;;5113716;28;20025;-69
2022/12/20 02:31:12;;;;;;;7.03;1.70;;;;;;;;;;5113758;28;20088;-70
2022/12/20 02:33:42;;;;;;;10.43;2.10;;;;;;;;;;5113606;28;20036;-70
2022/12/20 02:36:07;;;;;;;11.70;1.90;;;;;;;;;;5112292;28;20123;-70
2022/12/20 02:38:37;;;;;;;11.73;2.70;;;;;;;;;;5113785;28;20107;-73
2022/12/20 02:41:10;;;;;;;7.47;1.92;;;;;;;;;;5095029;28;20030;-70
2022/12/20 02:46:23;;;;;;;8.18;1.77;;;;;;;;;;5113144;28;20054;-70
2022/12/20 02:48:50;;;;;;;9.27;1.77;;;;;;;;;;5113329;28;20028;-70
2022/12/20 02:51:19;;;;;;;10.35;2.30;;;;;;;;;;5113378;28;20167;-72
2022/12/20 02:53:44;;;;;;;9.55;1.80;;;;;;;;;;5113472;28;20027;-70
2022/12/20 02:56:22;;;;;;;8.05;2.13;;;;;;;;;;5113075;28;20026;-70
2022/12/20 02:58:53;;;;;;;8.75;1.85;;;;;;;;;;5113219;28;20126;-70
2022/12/20 03:01:27;;;;;;;8.20;1.52;;;;;;;;;;5113294;28;20403;-70
2022/12/20 03:03:54;;;;;;;6.35;1.80;;;;;;;;;;5113169;28;20083;-70
2022/12/20 03:06:20;;;;;;;6.13;2.00;;;;;;;;;;5112908;28;20070;-70
2022/12/20 03:08:46;;;;;;;8.52;1.73;;;;;;;;;;5112984;28;20067;-70
2022/12/20 03:11:11;;;;;;;10.30;1.90;;;;;;;;;;5112934;28;20026;-70
2022/12/20 03:13:37;;;;;;;8.55;2.00;;;;;;;;;;5113022;28;20094;-70
2022/12/20 03:16:02;;;;;;;8.98;1.80;;;;;;;;;;5112641;28;20028;-70
2022/12/20 03:18:28;;;;;;;9.60;1.98;;;;;;;;;;5094476;28;20038;-70
2022/12/20 03:20:53;;;;;;;9.23;1.88;;;;;;;;;;5094336;28;20597;-73
2022/12/20 03:23:20;;;;;;;8.10;2.00;;;;;;;;;;5112768;28;20487;-70
2022/12/20 03:25:46;;;;;;;10.88;2.38;;;;;;;;;;5112590;28;20027;-71
2022/12/20 03:28:11;;;;;;;9.80;2.28;;;;;;;;;;5112533;28;20019;-71
2022/12/20 03:30:36;;;;;;;9.90;1.88;;;;;;;;;;5112657;28;20030;-70
2022/12/20 03:33:02;;;;;;;8.23;1.80;;;;;;;;;;5112518;28;20023;-70
2022/12/20 03:35:27;;;;;;;10.30;1.83;;;;;;;;;;5094175;28;20059;-72
2022/12/20 03:37:54;;;;;;;7.22;1.80;;;;;;;;;;5112102;28;20015;-70
2022/12/20 03:40:20;;;;;;;4.88;1.85;;;;;;;;;;5112790;28;20374;-70
2022/12/20 03:42:45;;;;;;;8.20;2.03;;;;;;;;;;5112139;28;20527;-70
2022/12/20 03:45:11;;;;;;;8.25;1.70;;;;;;;;;;5112344;28;20391;-70
2022/12/20 03:47:36;;;;;;;6.47;1.50;;;;;;;;;;5093381;28;20044;-71
2022/12/20 03:50:02;;;;;;;9.85;1.80;;;;;;;;;;5112037;28;20122;-73
2022/12/20 03:52:27;;;;;;;6.88;1.75;;;;;;;;;;5111953;28;20070;-70
2022/12/20 03:54:53;;;;;;;9.50;1.92;;;;;;;;;;5093826;28;20030;-70
2022/12/20 03:57:18;;;;;;;7.82;2.10;;;;;;;;;;5111807;28;20059;-71
2022/12/20 03:59:44;;;;;;;8.05;1.70;;;;;;;;;;5112023;28;20080;-70
2022/12/20 04:02:09;;;;;;;9.52;2.20;;;;;;;;;;5093727;28;20383;-69
2022/12/20 04:04:35;;;;;;;8.77;1.92;;;;;;;;;;5112084;28;20111;-70
2022/12/20 04:07:00;;;;;;;9.27;1.80;;;;;;;;;;5111661;28;20023;-70
2022/12/20 04:09:25;;;;;;;8.60;1.70;;;;;;;;;;5111862;28;20038;-71
2022/12/20 04:11:51;;;;;;;10.05;1.92;;;;;;;;;;5111611;28;20026;-70
2022/12/20 04:14:16;;;;;;;9.80;1.92;;;;;;;;;;5111688;28;20157;-70
2022/12/20 04:16:42;;;;;;;8.00;1.60;;;;;;;;;;5093039;28;20441;-70
2022/12/20 04:19:07;;;;;;;10.38;1.90;;;;;;;;;;5111956;28;20034;-70
2022/12/20 04:21:33;;;;;;;9.23;2.22;;;;;;;;;;5111670;28;20114;-72
2022/12/20 04:24:01;;;;;;;9.70;1.90;;;;;;;;;;5111798;28;20023;-70
2022/12/20 04:26:26;;;;;;;11.02;1.90;;;;;;;;;;5111435;28;20023;-70
2022/12/20 04:28:52;;;;;;;8.60;2.15;;;;;;;;;;5111257;28;20026;-70
2022/12/20 04:31:17;;;;;;;11.73;1.90;;;;;;;;;;5111461;28;20031;-73
2022/12/20 04:33:44;;;;;;;9.52;1.90;;;;;;;;;;5111351;28;20023;-70
2022/12/20 04:36:10;;;;;;;8.45;1.90;;;;;;;;;;5111537;28;20024;-70
2022/12/20 04:38:35;;;;;;;12.65;2.25;;;;;;;;;;5111180;28;20071;-70
2022/12/20 04:41:00;;;;;;;6.78;1.98;;;;;;;;;;5111449;28;20103;-70
2022/12/20 04:43:26;;;;;;;10.07;1.85;;;;;;;;;;5110940;28;20047;-72
2022/12/20 04:45:57;;;;;;;8.18;1.98;;;;;;;;;;5111160;28;20051;-69
2022/12/20 04:48:28;;;;;;;9.40;2.25;;;;;;;;;;5110095;28;20048;-69
2022/12/20 04:50:55;;;;;;;10.02;2.00;;;;;;;;;;5109886;28;20560;-69
2022/12/20 04:56:05;;;;;;;10.00;1.95;;;;;;;;;;5111300;28;20559;-69
2022/12/20 04:58:31;;;;;;;9.05;1.70;;;;;;;;;;5109775;28;20107;-69
2022/12/20 05:00:56;;;;;;;11.40;2.00;;;;;;;;;;5110996;28;20039;-70
2022/12/20 05:03:24;;;;;;;7.47;1.70;;;;;;;;;;5110901;28;20066;-70
2022/12/20 05:05:50;;;;;;;8.32;1.80;;;;;;;;;;5111126;28;20020;-70
2022/12/20 05:08:15;;;;;;;12.07;2.10;;;;;;;;;;5110727;28;20035;-73
2022/12/20 05:10:41;;;;;;;7.72;1.70;;;;;;;;;;5110841;28;20472;-72
2022/12/20 05:13:07;;;;;;;9.20;1.77;;;;;;;;;;5110645;28;20024;-72
2022/12/20 05:15:33;;;;;;;8.80;1.98;;;;;;;;;;5110905;28;20020;-72
2022/12/20 05:17:59;;;;;;;8.27;1.85;;;;;;;;;;5109770;28;20076;-70
2022/12/20 05:20:29;;;;;;;16.85;2.20;;;;;;;;;;5110279;28;20642;-70
2022/12/20 05:26:34;;;;;;;9.45;2.00;;;;;;;;;;5110478;28;20115;-72
2022/12/20 05:28:35;;;;;;;10.20;1.90;;;;;;;;;;5095804;28;20047;-72
2022/12/20 05:31:01;;;;;;;7.35;1.80;;;;;;;;;;5110749;28;20395;-72
2022/12/20 05:33:27;;;;;;;6.63;1.75;;;;;;;;;;5110719;28;20107;-72
2022/12/20 05:35:53;;;;;;;11.40;1.95;;;;;;;;;;5110661;28;20110;-71
2022/12/20 05:38:19;;;;;;;9.60;2.00;;;;;;;;;;5110317;28;20028;-72
2022/12/20 05:40:46;;;;;;;10.45;2.13;;;;;;;;;;5110531;28;20440;-72
2022/12/20 05:43:12;;;;;;;6.60;1.73;;;;;;;;;;5110468;28;20019;-71
2022/12/20 05:45:37;;;;;;;10.43;1.92;;;;;;;;;;5093474;28;20089;-71
2022/12/20 05:48:03;;;;;;;13.48;2.00;;;;;;;;;;5089829;28;20036;-71
2022/12/20 05:50:28;;;;;;;10.57;1.80;;;;;;;;;;5090171;28;20411;-71
2022/12/20 05:52:54;;;;;;;8.93;1.77;;;;;;;;;;5090065;28;20042;-71
2022/12/20 05:55:19;;;;;;;9.30;1.85;;;;;;;;;;5090145;28;20027;-71
2022/12/20 05:57:44;;;;;;;10.07;1.85;;;;;;;;;;5089355;28;20148;-71
2022/12/20 06:00:11;;;;;;;7.90;1.83;;;;;;;;;;5090166;28;20078;-71
2022/12/20 06:02:37;;;;;;;9.70;2.05;;;;;;;;;;5089863;28;20221;-70
2022/12/20 06:05:03;;;;;;;10.30;1.92;;;;;;;;;;5090277;28;20659;-70
2022/12/20 06:07:28;;;;;;;8.52;1.80;;;;;;;;;;5089822;28;20028;-71
2022/12/20 06:09:55;;;;;;;10.30;1.95;;;;;;;;;;5092344;28;20032;-70
2022/12/20 06:12:20;;;;;;;6.72;1.75;;;;;;;;;;5093690;28;20032;-71
2022/12/20 06:14:46;;;;;;;9.70;2.13;;;;;;;;;;5093588;28;20028;-71
2022/12/20 06:17:11;;;;;;;12.07;2.03;;;;;;;;;;5093463;28;20116;-70
2022/12/20 06:19:40;;;;;;;9.55;1.92;;;;;;;;;;5093367;28;20484;-70
2022/12/20 06:22:06;;;;;;;8.40;1.70;;;;;;;;;;5093988;28;20024;-71
2022/12/20 06:24:32;;;;;;;8.10;1.83;;;;;;;;;;5093477;28;20051;-70
2022/12/20 06:26:57;;;;;;;7.57;2.00;;;;;;;;;;5124758;22;20055;-73
2022/12/20 06:29:23;;;;;;;10.93;2.35;;;;;;;;;;5113396;28;20436;-72
2022/12/20 06:31:49;;;;;;;8.65;1.70;;;;;;;;;;5114090;28;20028;-75
2022/12/20 06:34:14;;;;;;;11.35;1.85;;;;;;;;;;5113560;28;20038;-74
2022/12/20 06:36:40;;;;;;;14.43;1.90;;;;;;;;;;5114023;28;20023;-76
2022/12/20 06:39:08;;;;;;;14.15;2.60;;;;;;;;;;5113719;28;20379;-75
2022/12/20 06:41:33;;;;;;;10.77;2.22;;;;;;;;;;5114053;28;20016;-76
2022/12/20 06:43:59;;;;;;;9.65;1.80;;;;;;;;;;5113563;28;20031;-76
2022/12/20 06:46:24;;;;;;;10.32;1.95;;;;;;;;;;5113860;28;20482;-76
2022/12/20 06:48:49;;;;;;;9.70;2.05;;;;;;;;;;5113130;28;20100;-77
2022/12/20 06:51:16;;;;;;;6.63;1.90;;;;;;;;;;5113264;28;20020;-76
2022/12/20 06:53:41;;;;;;;10.50;1.90;;;;;;;;;;5113253;28;20034;-75
2022/12/20 06:56:07;;;;;;;9.82;1.73;;;;;;;;;;5113568;28;20027;-78
2022/12/20 06:58:32;;;;;;;7.90;1.98;;;;;;;;;;5112860;28;20031;-75
2022/12/20 07:00:58;;;;;;;8.63;2.25;;;;;;;;;;5113495;28;20063;-78
2022/12/20 07:03:23;;;;;;;9.48;2.00;;;;;;;;;;5113183;28;20077;-77
2022/12/20 07:05:53;;;;;;;9.70;1.73;;;;;;;;;;5113469;28;20024;-78
2022/12/20 07:08:19;;;;;;;8.80;1.95;;;;;;;;;;5112739;28;20410;-77
2022/12/20 07:10:45;;;;;;;11.27;2.00;;;;;;;;;;5111664;28;20104;-77
2022/12/20 07:13:10;;;;;;;12.93;2.20;;;;;;;;;;5112853;28;20092;-77
2022/12/20 07:15:36;;;;;;;8.52;1.80;;;;;;;;;;5113036;28;20375;-77
2022/12/20 07:18:02;;;;;;;10.85;2.00;;;;;;;;;;5112854;27;20471;-77
2022/12/20 07:20:27;;;;;;;10.48;2.13;;;;;;;;;;5112199;28;20414;-77
2022/12/20 07:22:53;;;;;;;12.35;2.30;;;;;;;;;;5112909;28;20034;-79
2022/12/20 07:25:18;;;;;;;9.20;2.22;;;;;;;;;;5112336;28;20044;-78
2022/12/20 07:27:48;;;;;;;12.55;2.13;;;;;;;;;;5112496;28;20024;-76
2022/12/20 07:30:14;;;;;;;17.95;2.40;;;;;;;;;;5112556;28;20024;-75
2022/12/20 07:32:40;;;;;;;7.65;2.10;;;;;;;;;;5112905;28;20034;-75
2022/12/20 07:35:06;;;;;;;9.65;1.88;;;;;;;;;;5112450;28;20016;-75
2022/12/20 07:37:31;;;;;;;11.98;1.98;;;;;;;;;;5112333;28;20024;-74
2022/12/20 07:39:56;;;;;;;10.18;2.00;;;;;;;;;;5112213;28;20081;-72
2022/12/20 07:42:22;;;;;;;8.98;2.00;;;;;;;;;;5111220;28;20546;-74
2022/12/20 07:44:47;;;;;;;11.15;2.40;;;;;;;;;;5112058;28;20567;-75
2022/12/20 07:47:13;;;;;;;12.02;2.38;;;;;;;;;;5112447;28;20016;-73
2022/12/20 07:49:38;;;;;;;10.00;2.08;;;;;;;;;;5110475;28;20024;-73
2022/12/20 07:52:07;;;;;;;10.95;2.83;;;;;;;;;;5112351;28;20020;-75
2022/12/20 07:54:36;;;;;;;10.50;2.10;;;;;;;;;;5112180;27;20027;-77
2022/12/20 07:57:13;;;;;;;9.73;2.28;;;;;;;;;;5112201;28;20534;-75
2022/12/20 07:59:42;;;;;;;14.70;2.25;;;;;;;;;;5111500;28;20027;-75
2022/12/20 08:02:14;;;;;;;13.35;2.65;;;;;;;;;;5112080;28;20050;-76
2022/12/20 08:04:39;;;;;;;9.45;2.03;;;;;;;;;;5111781;28;20059;-78
2022/12/20 08:07:07;;;;;;;8.05;2.00;;;;;;;;;;5112182;28;20058;-80
2022/12/20 08:09:37;;;;;;;9.45;1.80;;;;;;;;;;5110276;28;20047;-76
2022/12/20 08:12:02;;;;;;;11.23;2.25;;;;;;;;;;5112225;28;20051;-85
2022/12/20 08:14:28;;;;;;;14.77;2.22;;;;;;;;;;5111862;27;20451;-84
2022/12/20 08:16:54;;;;;;;9.88;1.90;;;;;;;;;;5112409;27;20076;-80
2022/12/20 08:19:19;;;;;;;12.18;2.28;;;;;;;;;;5111354;28;20080;-76
2022/12/20 08:21:44;;;;;;;8.88;2.10;;;;;;;;;;5110562;28;20051;-80
2022/12/20 08:24:10;;;;;;;15.68;2.85;;;;;;;;;;5111884;28;20467;-75
2022/12/20 08:26:38;;;;;;;7.57;2.08;;;;;;;;;;5110163;28;20181;-77
2022/12/20 08:29:03;;;;;;;12.80;2.33;;;;;;;;;;5111124;28;20497;-67
2022/12/20 08:31:29;;;;;;;11.88;2.17;;;;;;;;;;5111599;28;20077;-77
2022/12/20 08:33:54;;;;;;;11.15;2.33;;;;;;;;;;5111388;28;20020;-74
2022/12/20 08:36:20;;;;;;;9.43;2.00;;;;;;;;;;5111210;28;20102;-72
2022/12/20 08:38:45;;;;;;;11.57;2.28;;;;;;;;;;5111111;28;20024;-71
2022/12/20 08:41:14;;;;;;;16.85;3.08;;;;;;;;;;5111248;28;20106;-75
2022/12/20 08:43:41;;;;;;;14.43;2.47;;;;;;;;;;5111420;28;20019;-75
2022/12/20 08:46:08;;;;;;;17.90;2.70;;;;;;;;;;5111308;28;20102;-77
2022/12/20 08:48:34;;;;;;;19.88;3.03;;;;;;;;;;5111419;28;20020;-75
2022/12/20 08:51:02;;;;;;;10.93;2.17;;;;;;;;;;5110798;28;20027;-75
2022/12/20 08:53:28;;;;;;;12.77;2.45;;;;;;;;;;5109855;28;20023;-75
2022/12/20 08:56:06;;;;;;;15.43;3.08;;;;;;;;;;5110782;28;20020;-72
2022/12/20 08:58:32;;;;;;;10.60;2.60;;;;;;;;;;5110935;28;20030;-71
2022/12/20 09:00:59;;;;;;;13.23;3.10;;;;;;;;;;5110942;28;20051;-74
2022/12/20 09:03:25;;;;;;;15.18;2.67;;;;;;;;;;5108188;28;20028;-70
2022/12/20 09:05:51;;;;;;;14.57;2.80;;;;;;;;;;5106432;28;20482;-70
2022/12/20 09:08:16;;;;;;;17.42;2.95;;;;;;;;;;5121539;28;20024;-70
2022/12/20 09:10:42;;;;;;;15.25;2.60;;;;;;;;;;5121010;28;20589;-69
2022/12/20 09:13:08;;;;;;;15.52;2.63;;;;;;;;;;5120444;28;20058;-70
2022/12/20 09:15:34;;;;;;;13.60;2.40;;;;;;;;;;5121659;28;20175;-70
2022/12/20 09:18:00;;;;;;;9.25;2.20;;;;;;;;;;5122184;28;20019;-70
2022/12/20 09:20:27;;;;;;;8.82;2.17;;;;;;;;;;5121988;28;20030;-69
2022/12/20 09:22:52;;;;;;;13.05;2.33;;;;;;;;;;5120665;28;20346;-71
2022/12/20 09:25:17;;;;;;;14.90;2.58;;;;;;;;;;5120827;28;20046;-71
2022/12/20 09:27:44;;;;;;;8.98;2.10;;;;;;;;;;5121353;28;20038;-71
2022/12/20 09:30:09;;;;;;;8.70;2.20;;;;;;;;;;5119216;28;20094;-70
2022/12/20 09:32:35;;;;;;;11.95;2.05;;;;;;;;;;5121777;28;20035;-70
2022/12/20 09:35:00;;;;;;;12.10;2.28;;;;;;;;;;5122009;28;20020;-71
2022/12/20 09:37:29;;;;;;;8.18;1.88;;;;;;;;;;5122287;28;20654;-71
2022/12/20 09:39:54;;;;;;;11.73;2.10;;;;;;;;;;5121397;28;20106;-70
2022/12/20 09:42:23;;;;;;;13.45;2.40;;;;;;;;;;5121547;28;20024;-70
2022/12/20 09:44:49;;;;;;;13.93;2.15;;;;;;;;;;5122520;28;20040;-70
2022/12/20 09:47:19;;;;;;;8.98;1.98;;;;;;;;;;5125017;27;20024;-71
2022/12/20 09:49:48;;;;;;;9.95;2.13;;;;;;;;;;5121259;28;20047;-70
2022/12/20 09:52:28;;;;;;;13.60;2.30;;;;;;;;;;5117386;28;20031;-72
2022/12/20 09:55:17;;;;;;;13.05;2.33;;;;;;;;;;5116994;28;20028;-74
2022/12/20 09:57:58;;;;;;;10.88;2.13;;;;;;;;;;5062069;28;20407;-74
2022/12/20 10:00:23;;;;;;;15.57;2.50;;;;;;;;;;5113466;28;20031;-72
2022/12/20 10:02:49;;;;;;;12.10;2.20;;;;;;;;;;5115680;28;20036;-70
2022/12/20 10:05:23;;;;;;;11.13;2.25;;;;;;;;;;5124030;28;20134;-70
2022/12/20 10:08:01;;;;;;;12.77;2.58;;;;;;;;;;5123972;28;20091;-72
2022/12/20 10:10:50;;;;;;;10.68;2.13;;;;;;;;;;5123223;28;20319;-71
2022/12/20 10:13:29;;;;;;;12.55;2.45;;;;;;;;;;5101821;28;20023;-71
2022/12/20 10:16:39;;;;;;;10.95;2.30;;;;;;;;;;5114411;28;20020;-71
2022/12/20 10:19:16;;;;;;;12.90;2.03;;;;;;;;;;5075245;28;20050;-71
2022/12/20 10:22:00;;;;;;;12.40;2.08;;;;;;;;;;5112710;28;20102;-71
2022/12/20 10:24:31;;;;;;;10.88;2.20;;;;;;;;;;5113778;28;20172;-71
2022/12/20 10:27:09;;;;;;;12.93;2.47;;;;;;;;;;5113751;28;20036;-70
2022/12/20 10:29:34;;;;;;;10.75;2.10;;;;;;;;;;5112137;28;20016;-70
2022/12/20 10:32:01;;;;;;;11.52;1.98;;;;;;;;;;5113617;28;20030;-70
2022/12/20 10:34:27;;;;;;;11.70;2.45;;;;;;;;;;5112443;28;20076;-72
2022/12/20 10:37:11;;;;;;;10.30;2.10;;;;;;;;;;5113173;28;20015;-72
2022/12/20 10:39:42;;;;;;;8.35;2.03;;;;;;;;;;5099989;28;20032;-75
2022/12/20 10:42:30;;;;;;;10.07;2.50;;;;;;;;;;5112569;28;20023;-74
2022/12/20 10:44:56;;;;;;;14.75;2.50;;;;;;;;;;5112325;28;20113;-71
2022/12/20 10:47:39;;;;;;;9.05;2.13;;;;;;;;;;5113398;28;20028;-72
2022/12/20 10:50:20;;;;;;;11.30;1.98;;;;;;;;;;5113104;28;20062;-73
2022/12/20 10:53:00;;;;;;;;;;;;;;;;;;5113540;28;20606;-73
2022/12/20 10:55:36;;;;;;;12.13;2.15;;;;;;;;;;5110876;28;20312;-74
2022/12/20 10:58:13;;;;;;;9.23;1.88;;;;;;;;;;5111133;28;20099;-77
2022/12/20 11:00:39;;;;;;;9.45;2.10;;;;;;;;;;5109381;28;20019;-71
2022/12/20 11:03:14;;;;;;;9.60;2.00;;;;;;;;;;5113603;28;20031;-71
2022/12/20 11:05:51;;;;;;;11.45;1.98;;;;;;;;;;5123639;28;20034;-71
2022/12/20 11:08:17;;;;;;;10.30;2.03;;;;;;;;;;5124268;28;20091;-70
2022/12/20 11:10:43;;;;;;;10.32;2.55;;;;;;;;;;5122784;28;20028;-70
2022/12/20 11:13:25;;;;;;;8.80;2.00;;;;;;;;;;5112218;28;20069;-70
2022/12/20 11:15:55;;;;;;;14.57;2.30;;;;;;;;;;5111330;28;20023;-73
2022/12/20 11:18:24;;;;;;;12.85;2.30;;;;;;;;;;5116464;28;20269;-70
2022/12/20 11:20:59;;;;;;;9.45;2.08;;;;;;;;;;5118915;28;20020;-71
2022/12/20 11:23:33;;;;;;;8.55;2.08;;;;;;;;;;5112515;28;20035;-72
2022/12/20 11:26:29;;;;;;;9.02;2.05;;;;;;;;;;5111158;28;20048;-69
2022/12/20 11:29:14;;;;;;;11.93;2.10;;;;;;;;;;5112418;28;20383;-70
2022/12/20 11:31:58;;;;;;;12.98;2.20;;;;;;;;;;5112257;28;20092;-70
2022/12/20 11:35:13;;;;;;;11.88;2.15;;;;;;;;;;5112477;28;20031;-69
2022/12/20 11:37:54;;;;;;;9.98;1.90;;;;;;;;;;5029189;28;20045;-71
2022/12/20 11:40:20;;;;;;;10.13;2.40;;;;;;;;;;5113528;28;20245;-72
2022/12/20 11:42:51;;;;;;;9.10;1.90;;;;;;;;;;5113922;28;20121;-73
2022/12/20 11:45:27;;;;;;;9.07;1.77;;;;;;;;;;5112030;28;20019;-72
2022/12/20 11:47:58;;;;;;;8.55;1.70;;;;;;;;;;5109848;28;20418;-72
2022/12/20 11:50:43;;;;;;;8.32;1.77;;;;;;;;;;5110509;28;20031;-71
2022/12/20 11:53:22;;;;;;;8.77;1.98;;;;;;;;;;5111483;28;20023;-72
2022/12/20 11:55:52;;;;;;;9.57;1.90;;;;;;;;;;5110793;28;20015;-72
2022/12/20 11:58:40;;;;;;;9.60;2.20;;;;;;;;;;5109212;28;20023;-72
2022/12/20 12:01:17;;;;;;;11.15;2.10;;;;;;;;;;5110475;28;20031;-73
2022/12/20 12:04:03;;;;;;;10.60;1.90;;;;;;;;;;5110242;28;20027;-73
2022/12/20 12:06:32;;;;;;;14.75;2.10;;;;;;;;;;5110378;28;20088;-72
2022/12/20 12:09:24;;;;;;;7.68;1.95;;;;;;;;;;5111243;28;20015;-73
2022/12/20 12:11:54;;;;;;;11.35;2.30;;;;;;;;;;5079822;28;20039;-72
2022/12/20 12:14:45;;;;;;;10.90;2.60;;;;;;;;;;5111906;28;20056;-72
2022/12/20 12:17:23;;;;;;;8.27;2.28;;;;;;;;;;5111825;28;20305;-71
2022/12/20 12:19:50;;;;;;;8.30;1.88;;;;;;;;;;5110445;28;20392;-72
2022/12/20 12:22:22;;;;;;;9.80;2.15;;;;;;;;;;5111524;28;20033;-72
2022/12/20 12:24:53;;;;;;;9.18;1.95;;;;;;;;;;5111578;28;20024;-71
2022/12/20 12:27:24;;;;;;;10.43;2.22;;;;;;;;;;5111162;28;20114;-71
2022/12/20 12:29:53;;;;;;;9.40;1.80;;;;;;;;;;5111349;28;20059;-71
2022/12/20 12:32:33;;;;;;;8.63;1.73;;;;;;;;;;5111282;28;20084;-71
2022/12/20 12:35:24;;;;;;;7.60;1.90;;;;;;;;;;5111630;28;20034;-72
2022/12/20 12:37:59;;;;;;;9.63;1.63;;;;;;;;;;5111197;28;20027;-72
2022/12/20 12:40:59;;;;;;;6.65;1.60;;;;;;;;;;5111121;28;20027;-72
2022/12/20 12:43:48;;;;;;;10.23;2.00;;;;;;;;;;5109784;28;20044;-72
2022/12/20 12:46:29;;;;;;;8.18;1.85;;;;;;;;;;5111171;28;20032;-72
2022/12/20 12:49:00;;;;;;;7.75;2.38;;;;;;;;;;5109740;28;20027;-71
2022/12/20 12:51:38;;;;;;;10.70;2.05;;;;;;;;;;5111076;28;20351;-72
2022/12/20 12:54:33;;;;;;;6.95;1.90;;;;;;;;;;5110969;28;20031;-72
2022/12/20 12:57:02;;;;;;;9.40;2.13;;;;;;;;;;5111144;28;20032;-72
2022/12/20 12:59:33;;;;;;;10.32;2.03;;;;;;;;;;5110716;28;20031;-72
2022/12/20 13:02:02;;;;;;;8.43;2.00;;;;;;;;;;5110712;28;20065;-72
2022/12/20 13:04:30;;;;;;;6.70;1.70;;;;;;;;;;5110647;28;20055;-71
2022/12/20 13:07:01;;;;;;;6.75;2.05;;;;;;;;;;5111127;28;20076;-71
2022/12/20 13:09:26;;;;;;;7.93;2.10;;;;;;;;;;5110824;28;20032;-72
2022/12/20 13:11:56;;;;;;;10.75;2.30;;;;;;;;;;5110873;28;20151;-72
2022/12/20 13:16:48;;;;;;;12.48;1.95;;;;;;;;;;5111053;28;20131;-71
2022/12/20 13:19:15;;;;;;;10.82;1.83;;;;;;;;;;5109842;28;20491;-73
2022/12/20 13:21:47;;;;;;;11.48;2.58;;;;;;;;;;5110616;28;20175;-71
2022/12/20 13:24:35;;;;;;;11.13;1.88;;;;;;;;;;5110976;28;20020;-72
2022/12/20 13:27:12;;;;;;;9.90;2.17;;;;;;;;;;5110737;28;20043;-71
2022/12/20 13:29:51;;;;;;;6.18;1.90;;;;;;;;;;5110597;28;20027;-71
2022/12/20 13:32:48;;;;;;;7.95;1.88;;;;;;;;;;5110826;28;20072;-71
2022/12/20 13:35:28;;;;;;;10.80;2.30;;;;;;;;;;5110583;28;20023;-71
2022/12/20 13:37:53;;;;;;;11.23;2.00;;;;;;;;;;5110243;28;20024;-71
2022/12/20 13:40:48;;;;;;;8.77;1.95;;;;;;;;;;5110552;28;20024;-72
2022/12/20 13:43:23;;;;;;;7.32;2.00;;;;;;;;;;5106527;28;20522;-72
2022/12/20 13:45:56;;;;;;;9.38;2.20;;;;;;;;;;5110678;28;20024;-72
2022/12/20 13:48:29;;;;;;;9.07;1.92;;;;;;;;;;5109441;28;20576;-71
2022/12/20 13:50:55;;;;;;;10.85;2.00;;;;;;;;;;5112678;28;20032;-72
2022/12/20 13:53:24;;;;;;;6.78;1.92;;;;;;;;;;5110139;28;20114;-72
2022/12/20 13:55:49;;;;;;;9.18;2.00;;;;;;;;;;5110433;28;20475;-72
2022/12/20 13:58:23;;;;;;;11.48;2.05;;;;;;;;;;5110412;28;20047;-72
2022/12/20 14:00:49;;;;;;;8.40;2.00;;;;;;;;;;5110436;28;20031;-73
2022/12/20 14:03:27;;;;;;;9.00;1.95;;;;;;;;;;5110305;28;20102;-72
2022/12/20 14:06:08;;;;;;;9.40;2.17;;;;;;;;;;5110430;28;20027;-73
2022/12/20 14:08:37;;;;;;;8.85;2.00;;;;;;;;;;5110401;28;20391;-72
2022/12/20 14:11:11;;;;;;;8.18;2.00;;;;;;;;;;5109880;28;20035;-72
2022/12/20 14:13:37;;;;;;;7.78;1.90;;;;;;;;;;5109883;28;20057;-72
2022/12/20 14:16:18;;;;;;;8.25;1.90;;;;;;;;;;5110335;28;20143;-73
2022/12/20 14:18:59;;;;;;;9.25;2.22;;;;;;;;;;5109935;28;20038;-72
2022/12/20 14:21:25;;;;;;;12.10;2.50;;;;;;;;;;5110398;28;20027;-72
2022/12/20 14:23:54;;;;;;;7.85;1.88;;;;;;;;;;5110007;28;20495;-72
2022/12/20 14:26:28;;;;;;;13.80;2.08;;;;;;;;;;5094331;28;20076;-72
2022/12/20 14:28:56;;;;;;;9.88;1.88;;;;;;;;;;5089336;28;20024;-73
2022/12/20 14:31:26;;;;;;;10.40;2.03;;;;;;;;;;5092425;28;20031;-72
2022/12/20 14:34:13;;;;;;;8.02;2.10;;;;;;;;;;5093332;28;20114;-72
2022/12/20 14:36:45;;;;;;;13.25;2.30;;;;;;;;;;5093589;28;20641;-72
2022/12/20 14:39:27;;;;;;;10.30;2.10;;;;;;;;;;5106353;28;20027;-72
2022/12/20 14:42:11;;;;;;;10.15;2.00;;;;;;;;;;5113381;28;20154;-71
2022/12/20 14:44:38;;;;;;;8.23;2.00;;;;;;;;;;5113385;28;20102;-73
2022/12/20 14:47:14;;;;;;;9.77;2.25;;;;;;;;;;5113440;28;20780;-75
2022/12/20 14:49:46;;;;;;;5.47;2.35;;;;;;;;;;5113122;28;20520;-73
2022/12/20 14:52:19;;;;;;;7.85;2.20;;;;;;;;;;5113334;28;20034;-73
2022/12/20 14:54:53;;;;;;;19.73;2.30;;;;;;;;;;5113393;28;20028;-73
2022/12/20 14:57:24;;;;;;;6.25;2.00;;;;;;;;;;5113577;28;20095;-72
2022/12/20 14:59:59;;;;;;;;;;;;;;;;;;5113495;28;20495;-72
2022/12/20 15:02:40;;;;;;;9.88;2.10;;;;;;;;;;5112948;28;19957;-72
2022/12/20 15:05:35;;;;;;;9.82;1.98;;;;;;;;;;5111586;28;20031;-73
2022/12/20 15:08:19;;;;;;;8.90;2.20;;;;;;;;;;5105662;28;20085;-71